Meteo Giornale » Osservazioni meteo Stati Uniti (USA) » Chisholm-Hibbing
ore: 07:05 - Osservazioni Meteo Chisholm-Hibbing
Lat. 47° 23' N Lon. 92° 50' W Alt. 412 metri s.l.m.
8 °C
Foschia
Temp. 24 Ore
8 °C
27 °C
Nord
0 Km/h
Dew point 8 °C
Umidità 100 %
Visibilità 6 Km
Il sole sorge alle ore 06:30
Il sole tramonta alle ore 19:51
| Data e Ora | Cielo e Fenomeni | T °C | DP °C | Um. % | Pres. hPa | Vis. km | Vento km/h | |
|---|---|---|---|---|---|---|---|---|
| Oggi h: 07:05 | Foschia | 8 | 8 | 100 | 1012 | 6 | N 0 | |
| Oggi h: 06:57 | Foschia | 8 | 8 | 100 | 1012 | 3 | N 0 | |
| Oggi h: 06:53 | Nebbia | 8 | 8 | 100 | 1012 | 2 | N 0 | |
| Oggi h: 06:46 | Nebbia | 8 | 8 | 100 | 1012 | 2 | N 0 | |
| Oggi h: 06:41 | Foschia | 8 | 8 | 100 | 1012 | 2 | N 0 | |
| Oggi h: 06:18 | Foschia | 8 | 8 | 100 | 1012 | 8 | N 0 | |
| Oggi h: 06:11 | Foschia | 8 | 8 | 100 | 1012 | 3 | N 0 | |
| Oggi h: 06:07 | Foschia | 9 | 9 | 100 | 1012 | 5 | N 0 | |
| Oggi h: 05:57 | Foschia | 9 | 9 | 100 | 1012 | 2 | N 0 | |
| Oggi h: 05:53 | Sereno | 8 | 8 | 100 | 1012 | 14 | N 0 | |
| Oggi h: 05:21 | Foschia | 9 | 9 | 100 | 1012 | 10 | N 0 | |
| Oggi h: 05:14 | Foschia | 9 | 9 | 100 | 1012 | 2 | N 0 | |
| Oggi h: 05:05 | Nebbia | 9 | 9 | 100 | 1012 | 2 | N 0 | |
| Oggi h: 04:57 | Foschia | 9 | 9 | 100 | 1012 | 2 | N 0 | |
| Oggi h: 04:53 | Foschia | 9 | 9 | 100 | 1012 | 6 | N 0 | |
| Oggi h: 04:13 | Foschia | 9 | 9 | 100 | 1012 | 5 | N 0 | |
| Oggi h: 04:10 | Foschia | 9 | 9 | 100 | 1012 | 2 | N 0 | |
| Oggi h: 04:03 | Nebbia | 9 | 9 | 100 | 1012 | 2 | N 0 | |
| Oggi h: 03:53 | Nebbia | 9 | 9 | 100 | 1012 | 2 | N 0 | |
| Oggi h: 03:46 | Foschia | 9 | 9 | 100 | 1012 | 5 | N 0 | |
| Oggi h: 03:38 | Foschia | 9 | 9 | 100 | 1012 | 2 | N 0 | |
| Oggi h: 03:16 | Foschia | 11 | 11 | 100 | 1012 | 5 | N 0 | |
| Oggi h: 03:06 | Foschia | 10 | 10 | 100 | 1012 | 5 | N 0 | |
| Oggi h: 02:53 | Sereno | 11 | 11 | 100 | 1012 | 10 | N 0 | |
| Oggi h: 02:16 | Foschia | 11 | 11 | 100 | 1012 | 5 | N 0 | |
| Oggi h: 02:01 | Foschia | 11 | 11 | 100 | 1012 | 2 | N 0 | |
| Oggi h: 01:53 | Foschia | 11 | 11 | 100 | 1012 | 5 | N 0 | |
| Oggi h: 01:46 | Nebbia | 11 | 11 | 100 | 1012 | 2 | N 0 | |
| Oggi h: 01:38 | Foschia | 11 | 11 | 100 | 1012 | 2 | N 0 | |
| Oggi h: 01:22 | Foschia | 11 | 11 | 100 | 1012 | 5 | N 0 | |
| Oggi h: 01:11 | Foschia | 11 | 11 | 100 | 1012 | 5 | N 0 | |
| Oggi h: 01:08 | Foschia | 11 | 11 | 100 | 1012 | 5 | N 0 | |
| Oggi h: 00:53 | Foschia | 12 | 12 | 100 | 1012 | 2 | N 0 | |
| Oggi h: 00:48 | Foschia | 12 | 12 | 100 | 1012 | 3 | N 0 | |
| Oggi h: 00:31 | Foschia | 12 | 12 | 100 | 1012 | 2 | N 0 | |
| Oggi h: 00:06 | Sereno | 12 | 12 | 100 | 1012 | 14 | N 0 | |
| Ieri h: 23:58 | Foschia | 12 | 12 | 100 | 1012 | 3 | N 0 | |
| Ieri h: 23:53 | Foschia | 12 | 12 | 100 | 1012 | 5 | N 0 | |
| Ieri h: 23:48 | Nebbia | 12 | 12 | 100 | 1012 | 2 | N 0 | |
| Ieri h: 23:38 | Foschia | 13 | 13 | 100 | 1012 | 5 | N 0 | |
| Ieri h: 23:26 | Foschia | 13 | 13 | 100 | 1012 | 8 | N 0 | |
| Ieri h: 23:19 | Foschia | 13 | 13 | 100 | 1012 | 2 | N 0 | |
| Ieri h: 23:08 | Nebbia | 13 | 13 | 100 | 1012 | 2 | N 0 | |
| Ieri h: 22:59 | Foschia | 14 | 14 | 100 | 1012 | 2 | N 0 | |
| Ieri h: 22:57 | Foschia | 13 | 13 | 100 | 1012 | 5 | N 0 | |
| Ieri h: 22:53 | Foschia | 14 | 14 | 100 | 1012 | 5 | N 0 | |
| Ieri h: 22:45 | Foschia | 14 | 14 | 100 | 1012 | 5 | N 0 | |
| Ieri h: 21:53 | Sereno | 15 | 15 | 100 | 1012 | 10 | N 0 | |
| Ieri h: 20:53 | Sereno | 17 | 16 | 93 | 1011 | 10 | N 0 | |
| Ieri h: 19:53 | Sereno | 19 | 16 | 82 | 1011 | 10 | N 5.5 | |
| Ieri h: 18:53 | Sereno | 25 | 14 | 50 | 1011 | 10 | N 0 | |
| Ieri h: 17:53 | Sereno | 26 | 14 | 47 | 1010 | 10 | N 5.5 | |
| Ieri h: 16:53 | Sereno | 27 | 14 | 44 | 1011 | 10 | N 5.5 | |
| Ieri h: 15:53 | Sereno | 27 | 14 | 44 | 1010 | 10 | N/NO 16.7 | |
| Ieri h: 14:53 | Sereno | 27 | 13 | 42 | 1011 | 10 | O/NO 14.8 | |
| Ieri h: 13:53 | Sereno | 26 | 17 | 57 | 1010 | 10 | O/NO 14.8 | |
| Ieri h: 12:53 | Nuvoloso | 24 | 19 | 73 | 1010 | 10 | O/SO 11.1 | |
| Ieri h: 12:17 | Nuvoloso | 23 | 21 | 88 | 1010 | 10 | O/SO 11.1 | |
| Ieri h: 12:03 | Molto Nuvoloso | 23 | 21 | 88 | 1010 | 14 | O 9.3 | |
| Ieri h: 11:53 | Molto Nuvoloso | 22 | 21 | 94 | 1010 | 14 | O 7.4 | |
| Ieri h: 11:09 | Foschia | 21 | 21 | 100 | 1010 | 8 | N 7.4 | |
| Ieri h: 10:53 | Foschia | 21 | 20 | 94 | 1010 | 5 | O/SO 7.4 | |
| Ieri h: 10:36 | Foschia | 21 | 20 | 94 | 1010 | 5 | N 9.3 | |
| Ieri h: 10:00 | Foschia | 20 | 20 | 100 | 1010 | 3 | N 7.4 | |
| Ieri h: 09:53 | Foschia | 20 | 19 | 93 | 1010 | 5 | N 5.5 | |
| Ieri h: 08:53 | Foschia | 19 | 19 | 100 | 1009 | 2 | N 7.4 | |
| Ieri h: 08:12 | Pioggia Foschia | 19 | 19 | 100 | 1009 | 2 | N 5.5 | |
| Ieri h: 07:53 | Foschia | 19 | 19 | 100 | 1009 | 3 | N 5.5 | |



